createdAt,value
2023-07-12T04:41:37.974Z,18.39
2023-07-12T04:44:18.452Z,18.23
2023-07-12T04:45:29.201Z,17.77
2023-07-12T04:46:19.504Z,17.46
2023-07-12T04:47:19.436Z,17.26
2023-07-12T04:48:19.356Z,17.15
2023-07-12T04:49:19.337Z,17.08
2023-07-12T04:50:19.342Z,17.05
2023-07-12T04:51:19.314Z,17.03
2023-07-12T04:52:19.306Z,17.01
2023-07-12T04:53:19.302Z,17.01
2023-07-12T04:54:19.286Z,17.02
2023-07-12T04:55:19.251Z,17.02
2023-07-12T04:56:19.256Z,17.01
2023-07-12T04:57:19.235Z,16.98
2023-07-12T04:58:19.229Z,16.94
2023-07-12T04:59:19.243Z,16.91
2023-07-12T05:00:19.218Z,16.89
2023-07-12T05:01:19.314Z,16.87
2023-07-12T05:02:19.199Z,16.85
2023-07-12T05:03:19.261Z,16.84
2023-07-12T05:04:19.260Z,16.82
2023-07-12T05:05:19.150Z,16.80
2023-07-12T05:06:23.879Z,16.76
2023-07-12T05:07:19.114Z,16.73
2023-07-12T05:08:19.120Z,16.70
2023-07-12T05:09:19.084Z,16.68
2023-07-12T05:10:19.077Z,16.66
2023-07-12T05:11:19.069Z,16.64
2023-07-12T05:12:19.049Z,16.62
2023-07-12T05:13:19.032Z,16.60
2023-07-12T05:14:19.035Z,16.59
2023-07-12T05:15:19.008Z,16.58
2023-07-12T05:16:19.050Z,16.57
2023-07-12T05:17:18.988Z,16.56
2023-07-12T05:18:19.019Z,16.56
2023-07-12T05:19:18.973Z,16.57
2023-07-12T05:20:19.034Z,16.59
2023-07-12T05:21:18.929Z,16.61
2023-07-12T05:22:18.935Z,16.62
2023-07-12T05:23:18.913Z,16.64
2023-07-12T05:24:18.899Z,16.65
2023-07-12T05:25:18.886Z,16.66
2023-07-12T05:26:18.885Z,16.67
2023-07-12T05:27:18.850Z,16.68
2023-07-12T05:28:18.838Z,16.68
2023-07-12T05:29:18.856Z,16.67
2023-07-12T05:30:18.823Z,16.67
2023-07-12T05:31:18.943Z,16.65
2023-07-12T05:32:18.804Z,16.65
2023-07-12T05:33:18.782Z,16.66
2023-07-12T05:34:18.769Z,16.67
2023-07-12T05:35:18.790Z,16.68
2023-07-12T05:36:18.749Z,16.69
2023-07-12T05:37:18.719Z,16.71
2023-07-12T05:38:18.711Z,16.73
2023-07-12T05:39:18.696Z,16.74
2023-07-12T05:40:18.690Z,16.75
2023-07-12T05:41:18.731Z,16.76
2023-07-12T05:42:18.679Z,16.78
2023-07-12T05:43:18.665Z,16.80
2023-07-12T05:44:18.648Z,16.82
2023-07-12T05:45:18.666Z,16.84
2023-07-12T05:46:18.664Z,16.86
2023-07-12T05:47:18.657Z,16.87
2023-07-12T05:48:18.593Z,16.89
2023-07-12T05:49:18.569Z,16.90
2023-07-12T05:50:18.583Z,16.91
2023-07-12T05:51:18.544Z,16.93
2023-07-12T05:52:18.544Z,16.93
2023-07-12T05:53:18.536Z,16.95
2023-07-12T05:54:18.523Z,16.96
2023-07-12T05:55:18.497Z,16.96
2023-07-12T05:56:18.493Z,16.97
2023-07-12T05:57:18.476Z,16.97
2023-07-12T05:58:18.472Z,16.98
2023-07-12T05:59:18.524Z,16.99
2023-07-12T06:00:18.471Z,17.01
2023-07-12T06:01:18.423Z,17.04
2023-07-12T06:02:18.453Z,17.05
2023-07-12T06:03:18.458Z,17.06
2023-07-12T06:04:20.106Z,17.07
2023-07-12T06:05:18.398Z,17.07
2023-07-12T06:06:18.356Z,17.07
2023-07-12T06:07:18.348Z,17.06
2023-07-12T06:08:18.351Z,17.06
2023-07-12T06:09:18.330Z,17.05
2023-07-12T06:10:18.313Z,17.04
2023-07-12T06:11:18.300Z,17.03
2023-07-12T06:12:18.290Z,17.04
2023-07-12T06:13:18.279Z,17.05
2023-07-12T06:14:18.271Z,17.06
2023-07-12T06:15:18.250Z,17.08
2023-07-12T06:16:18.232Z,17.10
2023-07-12T06:17:18.302Z,17.13
2023-07-12T06:18:18.345Z,17.16
2023-07-12T06:19:18.182Z,17.19
2023-07-12T06:20:18.184Z,17.22
2023-07-12T06:21:18.166Z,17.24
2023-07-12T06:22:18.162Z,17.27
2023-07-12T06:23:18.160Z,17.29
2023-07-12T06:24:18.122Z,17.31
2023-07-12T06:25:18.116Z,17.33
2023-07-12T06:26:18.100Z,17.35
2023-07-12T06:27:18.093Z,17.37
2023-07-12T06:28:18.098Z,17.40
2023-07-12T06:29:18.102Z,17.42
2023-07-12T06:30:18.060Z,17.45
2023-07-12T06:31:18.066Z,17.47
2023-07-12T06:32:18.049Z,17.50
2023-07-12T06:33:18.009Z,17.54
2023-07-12T06:34:18.003Z,17.57
2023-07-12T06:35:18.003Z,17.62
2023-07-12T06:36:17.985Z,17.68
2023-07-12T06:37:17.967Z,17.75
2023-07-12T06:38:17.983Z,17.81
2023-07-12T06:39:17.926Z,17.86
2023-07-12T06:40:17.915Z,17.91
2023-07-12T06:41:17.934Z,17.96
2023-07-12T06:42:17.907Z,18.01
2023-07-12T06:43:17.893Z,18.07
2023-07-12T06:44:17.890Z,18.14
2023-07-12T06:45:17.866Z,18.22
2023-07-12T06:46:17.907Z,18.32
2023-07-12T06:47:17.860Z,18.40
2023-07-12T06:48:17.839Z,18.49
2023-07-12T06:49:17.808Z,18.60
2023-07-12T06:50:17.835Z,18.74
2023-07-12T06:51:17.794Z,18.86
2023-07-12T06:52:17.774Z,18.96
2023-07-12T06:53:17.772Z,19.04
2023-07-12T06:54:17.760Z,19.10
2023-07-12T06:55:17.735Z,19.10
2023-07-12T06:56:17.744Z,19.05
2023-07-12T06:57:17.724Z,19.01
2023-07-12T06:58:17.704Z,18.97
2023-07-12T06:59:17.694Z,18.91
2023-07-12T07:00:17.684Z,18.91
2023-07-12T07:01:17.669Z,18.92
2023-07-12T07:02:17.645Z,18.97
2023-07-12T07:03:17.639Z,19.05
2023-07-12T07:04:17.677Z,19.17
2023-07-12T07:05:17.627Z,19.33
2023-07-12T07:06:17.624Z,19.52
2023-07-12T07:07:17.580Z,19.71
2023-07-12T07:08:17.653Z,19.90
2023-07-12T07:09:17.563Z,20.07
2023-07-12T07:10:17.549Z,20.20
2023-07-12T07:11:17.565Z,20.29
2023-07-12T07:12:17.524Z,20.34
2023-07-12T07:13:17.509Z,20.35
2023-07-12T07:14:17.513Z,20.36
2023-07-12T07:15:17.475Z,20.40
2023-07-12T07:16:17.518Z,20.47
2023-07-12T07:17:17.473Z,20.54
2023-07-12T07:18:17.593Z,20.63
2023-07-12T07:19:17.451Z,20.69
2023-07-12T07:20:17.423Z,20.67
2023-07-12T07:21:17.421Z,20.60
2023-07-12T07:22:17.390Z,20.55
2023-07-12T07:23:17.416Z,20.50
2023-07-12T07:24:17.387Z,20.45
2023-07-12T07:25:20.936Z,20.43
2023-07-12T07:26:17.448Z,20.47
2023-07-12T07:27:17.970Z,20.56
2023-07-12T07:28:17.337Z,20.69
2023-07-12T07:29:17.328Z,20.83
2023-07-12T07:30:19.003Z,20.97
2023-07-12T07:31:17.339Z,21.12
2023-07-12T07:32:17.308Z,21.32
2023-07-12T07:33:17.266Z,21.53
2023-07-12T07:34:17.355Z,21.72
2023-07-12T07:35:17.260Z,21.92
2023-07-12T07:36:17.254Z,22.11
2023-07-12T07:37:17.229Z,22.31
2023-07-12T07:38:17.225Z,22.55
2023-07-12T07:39:17.223Z,22.83
2023-07-12T07:40:17.201Z,23.12
2023-07-12T07:41:17.203Z,23.34
2023-07-12T07:42:17.196Z,23.44
2023-07-12T07:43:17.160Z,23.53
2023-07-12T07:44:17.158Z,23.59
2023-07-12T07:45:17.147Z,23.58
2023-07-12T07:46:17.179Z,23.64
2023-07-12T07:47:17.197Z,23.79
2023-07-12T07:48:17.107Z,23.93
2023-07-12T07:49:17.092Z,24.08
2023-07-12T07:50:17.096Z,24.28
2023-07-12T07:51:17.080Z,24.48
2023-07-12T07:52:17.116Z,24.71
2023-07-12T07:53:17.168Z,24.97
2023-07-12T07:54:17.056Z,25.30
2023-07-12T07:55:17.049Z,25.68
2023-07-12T07:56:17.024Z,26.09
2023-07-12T07:57:17.018Z,26.48
2023-07-12T07:58:16.979Z,26.70
2023-07-12T07:59:17.734Z,26.85
2023-07-12T08:00:16.964Z,27.02
2023-07-12T08:01:16.942Z,27.13
2023-07-12T08:02:17.044Z,27.15
2023-07-12T08:03:17.132Z,27.06
2023-07-12T08:04:17.086Z,26.85
2023-07-12T08:05:17.007Z,26.76
2023-07-12T08:06:16.880Z,26.90
2023-07-12T08:07:16.875Z,26.99
2023-07-12T08:08:17.037Z,27.12
2023-07-12T08:09:16.854Z,27.45
2023-07-12T08:10:16.879Z,27.71
2023-07-12T08:11:16.953Z,27.56
2023-07-12T08:12:16.865Z,27.23
2023-07-12T08:13:16.826Z,26.97
2023-07-12T08:14:16.928Z,26.90
2023-07-12T08:15:16.795Z,27.02
2023-07-12T08:16:16.830Z,27.16
2023-07-12T08:17:16.950Z,27.16
2023-07-12T08:18:16.840Z,27.02
2023-07-12T08:19:18.617Z,26.93
2023-07-12T08:20:16.934Z,26.85
2023-07-12T08:21:16.743Z,26.70
2023-07-12T08:22:16.734Z,26.69
2023-07-12T08:23:16.892Z,26.85
2023-07-12T08:24:16.744Z,26.93
2023-07-12T08:25:16.701Z,26.91
2023-07-12T08:26:16.892Z,27.01
2023-07-12T08:27:16.688Z,27.23
2023-07-12T08:28:16.686Z,27.65
2023-07-12T08:29:17.088Z,28.15
2023-07-12T08:30:16.685Z,28.27
2023-07-12T08:31:16.676Z,28.08
2023-07-12T08:32:16.690Z,27.87
2023-07-12T08:33:16.720Z,27.71
2023-07-12T08:34:16.613Z,27.57
2023-07-12T08:35:16.636Z,27.48
2023-07-12T08:36:16.726Z,27.48
2023-07-12T08:37:16.620Z,27.67
2023-07-12T08:38:16.694Z,27.90
2023-07-12T08:39:16.659Z,28.05
2023-07-12T08:40:16.584Z,28.24
2023-07-12T08:41:16.573Z,28.43
2023-07-12T08:42:16.622Z,28.66
2023-07-12T08:43:16.535Z,29.04
2023-07-12T08:44:16.555Z,29.48
2023-07-12T08:45:16.632Z,29.93
2023-07-12T08:46:16.628Z,30.40
2023-07-12T08:47:16.636Z,30.78
2023-07-12T08:48:16.526Z,30.95
2023-07-12T08:49:16.515Z,30.99
2023-07-12T08:50:16.725Z,31.06
2023-07-12T08:51:16.478Z,31.10
2023-07-12T08:52:16.721Z,31.07
2023-07-12T08:53:16.573Z,31.03
2023-07-12T08:54:16.676Z,31.18
2023-07-12T08:55:16.709Z,31.42
2023-07-12T08:56:17.031Z,31.61
2023-07-12T08:57:16.737Z,31.70
2023-07-12T08:58:16.748Z,31.70
2023-07-12T08:59:18.106Z,31.65
2023-07-12T09:00:16.713Z,31.58
2023-07-12T09:01:17.488Z,31.50
2023-07-12T09:02:17.923Z,31.44
2023-07-12T09:03:16.634Z,31.49
2023-07-12T09:04:17.231Z,31.64
2023-07-12T09:05:17.781Z,31.71
2023-07-12T09:06:17.512Z,31.70
2023-07-12T09:07:17.755Z,31.77
2023-07-12T09:08:16.611Z,31.82
2023-07-12T09:09:16.345Z,31.71
2023-07-12T09:10:16.552Z,31.63
2023-07-12T09:11:17.026Z,31.69
2023-07-12T09:12:16.434Z,31.50
2023-07-12T09:13:16.339Z,31.10
2023-07-12T09:14:16.392Z,30.92
2023-07-12T09:15:16.293Z,30.93
2023-07-12T09:16:16.351Z,31.14
2023-07-12T09:17:16.643Z,31.57
2023-07-12T09:18:16.593Z,31.97
2023-07-12T09:19:20.725Z,32.17
2023-07-12T09:20:17.416Z,32.19
2023-07-12T09:21:21.918Z,32.05
2023-07-12T09:22:16.609Z,31.75
2023-07-12T09:23:20.606Z,31.57
2023-07-12T09:24:19.460Z,31.70
2023-07-12T09:25:17.558Z,31.98
2023-07-12T09:26:19.682Z,32.26
2023-07-12T09:27:15.753Z,32.55
2023-07-12T09:28:18.185Z,32.74
2023-07-12T09:29:19.147Z,32.84
2023-07-12T09:30:18.088Z,32.98
2023-07-12T09:31:16.243Z,33.02
2023-07-12T09:32:16.246Z,32.78
2023-07-12T09:33:16.179Z,32.48
2023-07-12T09:34:16.157Z,32.34
2023-07-12T09:35:16.206Z,32.22
2023-07-12T09:36:16.156Z,32.02
2023-07-12T09:37:16.140Z,31.98
2023-07-12T09:38:16.140Z,32.19
2023-07-12T09:39:16.138Z,32.48
2023-07-12T09:40:16.122Z,32.64
2023-07-12T09:41:16.155Z,32.69
2023-07-12T09:42:16.094Z,32.83
2023-07-12T09:43:16.113Z,33.09
2023-07-12T09:44:16.100Z,33.30
2023-07-12T09:45:16.089Z,33.40
2023-07-12T09:46:16.096Z,33.20
2023-07-12T09:47:16.323Z,32.62
2023-07-12T09:48:16.068Z,31.92
2023-07-12T09:49:16.049Z,31.47
2023-07-12T09:50:16.135Z,31.43
2023-07-12T09:51:16.052Z,31.53
2023-07-12T09:52:16.031Z,31.54
2023-07-12T09:53:16.035Z,31.62
2023-07-12T09:54:16.030Z,31.79
2023-07-12T09:55:15.994Z,32.06
2023-07-12T09:56:15.999Z,32.43
2023-07-12T09:57:15.980Z,32.59
2023-07-12T09:58:16.011Z,32.75
2023-07-12T09:59:16.083Z,32.89
2023-07-12T10:00:15.954Z,32.60
2023-07-12T10:01:16.005Z,32.16
2023-07-12T10:02:15.968Z,31.99
2023-07-12T10:03:15.937Z,31.86
2023-07-12T10:04:16.007Z,31.84
2023-07-12T10:05:15.961Z,31.76
2023-07-12T10:06:15.924Z,31.40
2023-07-12T10:07:15.894Z,31.17
2023-07-12T10:08:15.913Z,31.09
2023-07-12T10:09:15.896Z,31.07
2023-07-12T10:10:15.875Z,31.13
2023-07-12T10:11:15.885Z,31.40
2023-07-12T10:12:15.890Z,31.74
2023-07-12T10:13:15.850Z,31.91
2023-07-12T10:14:15.909Z,31.96
2023-07-12T10:15:15.836Z,31.92
2023-07-12T10:16:15.823Z,31.77
2023-07-12T10:17:15.903Z,31.61
2023-07-12T10:18:15.899Z,31.64
2023-07-12T10:19:15.806Z,31.70
2023-07-12T10:20:15.795Z,31.64
2023-07-12T10:21:15.792Z,31.52
2023-07-12T10:22:15.770Z,31.08
2023-07-12T10:23:15.782Z,30.47
2023-07-12T10:24:15.765Z,30.31
2023-07-12T10:25:15.740Z,30.63
2023-07-12T10:26:15.740Z,31.10
2023-07-12T10:33:17.498Z,31.55
2023-07-12T10:33:23.385Z,31.35
2023-07-12T10:34:23.965Z,30.77
2023-07-12T10:38:39.580Z,28.95
2023-07-12T10:39:41.567Z,28.55
2023-07-12T10:40:40.521Z,28.42
2023-07-12T10:41:40.515Z,28.46
2023-07-12T10:42:40.501Z,28.46
2023-07-12T10:43:40.535Z,28.25
2023-07-12T10:44:40.512Z,27.84
2023-07-12T10:45:40.468Z,27.42
2023-07-12T10:46:40.492Z,27.18
2023-07-12T10:47:40.489Z,27.13
2023-07-12T10:48:40.443Z,27.28
2023-07-12T10:49:40.484Z,27.49
2023-07-12T10:50:40.467Z,27.63
2023-07-12T10:51:40.885Z,27.83
2023-07-12T10:52:40.400Z,28.26
2023-07-12T10:53:40.400Z,28.45
2023-07-12T10:54:40.406Z,28.28
2023-07-12T10:55:40.401Z,27.97
2023-07-12T10:56:40.371Z,27.75
2023-07-12T10:57:40.357Z,27.90
2023-07-12T10:58:40.334Z,28.33
2023-07-12T10:59:40.341Z,28.84
2023-07-12T11:00:40.314Z,29.35
2023-07-12T11:01:40.359Z,29.80
2023-07-12T11:02:40.466Z,30.21
2023-07-12T11:03:40.302Z,30.59
2023-07-12T11:04:40.301Z,30.94
2023-07-12T11:05:40.270Z,31.00
2023-07-12T11:06:40.306Z,30.74
2023-07-12T11:07:40.346Z,30.41
2023-07-12T11:08:40.342Z,30.21
2023-07-12T11:09:40.249Z,29.94
2023-07-12T11:10:40.261Z,29.56
2023-07-12T11:11:40.230Z,29.24
2023-07-12T11:12:40.242Z,28.97
2023-07-12T11:13:40.372Z,28.90
2023-07-12T11:14:40.214Z,29.14
2023-07-12T11:15:40.211Z,29.33
2023-07-12T11:16:40.197Z,29.19
2023-07-12T11:17:40.228Z,28.73
2023-07-12T11:18:40.213Z,28.12
2023-07-12T11:19:40.214Z,27.57
2023-07-12T11:20:40.144Z,27.15
2023-07-12T11:21:40.127Z,26.93
2023-07-12T11:22:40.129Z,26.87
2023-07-12T11:23:40.117Z,27.05
2023-07-12T11:24:40.113Z,27.29
2023-07-12T11:25:40.131Z,27.37
2023-07-12T11:26:40.144Z,27.65
2023-07-12T11:27:40.080Z,28.25
2023-07-12T11:28:40.062Z,28.83
2023-07-12T11:29:40.056Z,29.27
2023-07-12T11:30:40.101Z,29.63
2023-07-12T11:31:40.104Z,29.91
2023-07-12T11:32:40.069Z,30.01
2023-07-12T11:33:40.028Z,29.91
2023-07-12T11:34:40.018Z,29.71
2023-07-12T11:35:39.998Z,29.80
2023-07-12T11:36:40.007Z,30.10
2023-07-12T11:37:40.022Z,30.27
2023-07-12T11:38:39.976Z,30.23
2023-07-12T11:39:39.984Z,30.00
2023-07-12T11:40:39.960Z,29.77
2023-07-12T11:41:39.946Z,29.86
2023-07-12T11:42:39.942Z,30.02
2023-07-12T11:43:39.960Z,29.76
2023-07-12T11:44:39.964Z,29.23
2023-07-12T11:45:39.923Z,28.70
2023-07-12T11:46:39.950Z,28.32
2023-07-12T11:47:39.942Z,27.98
2023-07-12T11:48:39.873Z,27.55
2023-07-12T11:49:39.926Z,27.04
2023-07-12T11:50:39.865Z,26.56
2023-07-12T11:51:39.854Z,26.16
2023-07-12T11:52:39.832Z,25.75
2023-07-12T11:53:39.821Z,25.40
2023-07-12T11:54:39.818Z,25.16
2023-07-12T11:55:39.826Z,24.96
2023-07-12T11:56:39.791Z,24.73
2023-07-12T11:57:39.837Z,24.47
2023-07-12T11:58:39.758Z,24.22
2023-07-12T11:59:39.748Z,23.98
2023-07-12T12:00:39.786Z,23.72
2023-07-12T12:01:39.757Z,23.47
2023-07-12T12:02:39.735Z,23.26
2023-07-12T12:03:39.791Z,23.06
2023-07-12T12:04:40.002Z,22.88
2023-07-12T12:05:39.683Z,22.71
2023-07-12T12:06:39.685Z,22.57
2023-07-12T12:07:39.688Z,22.47
2023-07-12T12:08:39.649Z,22.39
2023-07-12T12:09:39.625Z,22.35
2023-07-12T12:10:39.621Z,22.35
2023-07-12T12:11:39.604Z,22.35
2023-07-12T12:12:39.636Z,22.34
2023-07-12T12:13:39.626Z,22.34
2023-07-12T12:14:39.568Z,22.31
2023-07-12T12:15:39.567Z,22.28
2023-07-12T12:16:39.547Z,22.28
2023-07-12T12:17:39.685Z,22.30
2023-07-12T12:18:39.737Z,22.30
2023-07-12T12:19:39.938Z,22.28
2023-07-12T12:20:39.935Z,22.24
2023-07-12T12:21:40.033Z,22.19
2023-07-12T12:22:39.683Z,22.14
2023-07-12T12:23:39.462Z,22.09
2023-07-12T12:24:39.439Z,22.06
2023-07-12T12:25:39.463Z,22.03
2023-07-12T12:26:41.248Z,22.02
2023-07-12T12:27:39.416Z,22.02
2023-07-12T12:28:39.419Z,22.03
2023-07-12T12:29:39.377Z,22.01
2023-07-12T12:30:39.372Z,21.98
2023-07-12T12:31:39.414Z,21.96
2023-07-12T12:32:39.446Z,21.91
2023-07-12T12:33:39.339Z,21.79
2023-07-12T12:34:39.318Z,21.64
2023-07-12T12:35:39.316Z,21.51
2023-07-12T12:36:39.291Z,21.40
2023-07-12T12:37:39.318Z,21.31
2023-07-12T12:38:39.266Z,21.24
2023-07-12T12:39:39.284Z,21.19
2023-07-12T12:40:39.237Z,21.18
2023-07-12T12:41:39.229Z,21.19
2023-07-12T12:42:39.209Z,21.22
2023-07-12T12:43:39.269Z,21.27
2023-07-12T12:44:39.181Z,21.33
2023-07-12T12:45:39.176Z,21.40
2023-07-12T12:47:39.206Z,21.66
2023-07-12T12:48:57.923Z,21.84
2023-07-12T12:53:51.845Z,22.35
2023-07-12T12:54:41.880Z,22.40
2023-07-12T12:58:05.221Z,22.53
2023-07-12T12:58:31.822Z,22.67
2023-07-12T13:04:30.083Z,22.30
2023-07-12T13:05:02.065Z,22.29
2023-07-12T13:06:07.510Z,22.39
2023-07-12T13:07:23.259Z,22.37
2023-07-12T13:12:51.705Z,22.43
2023-07-12T13:18:12.036Z,22.16
2023-07-12T13:19:35.559Z,22.09
2023-07-12T13:20:34.965Z,22.03
2023-07-12T13:21:35.445Z,21.95
2023-07-12T13:22:34.812Z,21.89
2023-07-12T13:24:34.791Z,21.74
2023-07-12T13:25:34.803Z,21.67
2023-07-12T13:26:34.779Z,21.61
2023-07-12T13:27:34.763Z,21.54
2023-07-12T13:28:34.790Z,21.47
2023-07-12T13:29:34.776Z,21.40
2023-07-12T13:30:34.730Z,21.33
2023-07-12T13:31:34.752Z,21.27
2023-07-12T13:32:34.759Z,21.23
2023-07-12T13:33:34.730Z,21.20
2023-07-12T13:36:34.648Z,21.16
2023-07-12T13:37:42.482Z,21.12
2023-07-12T13:40:35.567Z,21.07
2023-07-12T13:45:14.705Z,20.96
2023-07-12T13:45:34.570Z,20.95
2023-07-12T13:46:34.575Z,20.94
2023-07-12T13:47:35.370Z,20.92
2023-07-12T13:48:34.486Z,20.90
2023-07-12T13:49:34.543Z,20.89
2023-07-12T13:50:34.462Z,20.89
2023-07-12T13:51:34.478Z,20.89
2023-07-12T13:52:34.457Z,20.91
2023-07-12T13:53:34.435Z,20.93
2023-07-12T13:54:34.419Z,20.97
2023-07-12T13:55:44.451Z,20.99
2023-07-12T13:57:34.389Z,21.03
2023-07-12T13:58:35.288Z,21.04
2023-07-12T13:59:34.359Z,21.05
2023-07-12T14:00:43.933Z,21.05
2023-07-12T14:03:35.041Z,21.02
2023-07-12T14:04:36.254Z,20.99
2023-07-12T14:08:38.248Z,20.83
2023-07-12T14:09:34.303Z,20.80
2023-07-12T14:10:34.271Z,20.78
2023-07-12T14:11:34.220Z,20.76
2023-07-12T14:12:34.189Z,20.74
2023-07-12T14:13:34.246Z,20.72
2023-07-12T14:14:34.167Z,20.70
2023-07-12T14:15:34.179Z,20.67
2023-07-12T14:16:34.166Z,20.63
2023-07-12T14:17:34.175Z,20.58
2023-07-12T14:18:34.123Z,20.52
2023-07-12T14:19:34.132Z,20.46
2023-07-12T14:20:34.111Z,20.41
2023-07-12T14:21:34.088Z,20.37
2023-07-12T14:22:34.115Z,20.33
2023-07-12T14:23:34.068Z,20.30
2023-07-12T14:24:34.045Z,20.31
2023-07-12T14:25:34.078Z,20.34
2023-07-12T14:26:34.021Z,20.38
2023-07-12T14:27:34.021Z,20.43
2023-07-12T14:28:40.593Z,20.48
2023-07-12T14:31:34.021Z,20.68
2023-07-12T14:32:33.981Z,20.74
2023-07-12T14:33:33.964Z,20.80
2023-07-12T14:34:33.912Z,20.84
2023-07-12T14:35:33.914Z,20.86
2023-07-12T14:36:33.894Z,20.87
2023-07-12T14:37:33.915Z,20.86
2023-07-12T14:38:33.868Z,20.84
2023-07-12T14:39:33.870Z,20.84
2023-07-12T14:40:33.851Z,20.81
2023-07-12T14:41:33.841Z,20.77
2023-07-12T14:42:33.831Z,20.73
2023-07-12T14:43:33.823Z,20.70
2023-07-12T14:44:33.798Z,20.69
2023-07-12T14:45:33.772Z,20.67
2023-07-12T14:46:33.816Z,20.63
2023-07-12T14:47:33.778Z,20.61
2023-07-12T14:48:33.766Z,20.59
2023-07-12T14:49:33.797Z,20.56
2023-07-12T14:50:33.724Z,20.55
2023-07-12T14:51:33.699Z,20.53
2023-07-12T14:52:33.683Z,20.52
2023-07-12T14:53:33.673Z,20.54
2023-07-12T14:54:38.889Z,20.58
2023-07-12T14:55:33.699Z,20.60
2023-07-12T14:56:33.642Z,20.60
2023-07-12T14:58:04.011Z,20.57
2023-07-12T14:58:33.618Z,20.51
2023-07-12T14:59:33.590Z,20.45
2023-07-12T15:00:33.588Z,20.37
2023-07-12T15:01:33.666Z,20.31
2023-07-12T15:02:33.893Z,20.25
2023-07-12T15:03:33.595Z,20.20
2023-07-12T15:04:33.543Z,20.13
2023-07-12T15:05:33.523Z,20.06
2023-07-12T15:06:33.524Z,19.98
2023-07-12T15:07:33.582Z,19.88
2023-07-12T15:08:33.614Z,19.81
2023-07-12T15:09:33.551Z,19.74
2023-07-12T15:10:33.462Z,19.68
2023-07-12T15:11:33.461Z,19.64
2023-07-12T15:12:33.433Z,19.61
2023-07-12T15:13:33.480Z,19.60
2023-07-12T15:14:33.395Z,19.59
2023-07-12T15:15:33.399Z,19.59
2023-07-12T15:16:33.396Z,19.62
2023-07-12T15:17:33.407Z,19.64
2023-07-12T15:18:33.389Z,19.64
2023-07-12T15:19:33.376Z,19.61
2023-07-12T15:20:33.329Z,19.55
2023-07-12T15:21:33.360Z,19.48
2023-07-12T15:22:33.331Z,19.42
2023-07-12T15:23:33.704Z,19.37
2023-07-12T15:24:33.280Z,19.33
2023-07-12T15:25:33.334Z,19.31
2023-07-12T15:26:33.258Z,19.31
2023-07-12T15:27:37.219Z,19.30
2023-07-12T15:28:33.230Z,19.28
2023-07-12T15:29:33.211Z,19.28
2023-07-12T15:30:33.212Z,19.28
2023-07-12T15:31:33.288Z,19.29
2023-07-12T15:32:33.186Z,19.31
2023-07-12T15:33:33.160Z,19.32
2023-07-12T15:34:33.160Z,19.30
2023-07-12T15:35:33.139Z,19.27
2023-07-12T15:36:33.129Z,19.24
2023-07-12T15:37:33.160Z,19.21
2023-07-12T15:38:33.114Z,19.18
2023-07-12T15:39:33.083Z,19.15
2023-07-12T15:40:33.077Z,19.12
2023-07-12T15:41:33.064Z,19.09
2023-07-12T15:42:33.059Z,19.05
2023-07-12T15:43:33.084Z,19.03
2023-07-12T15:44:33.032Z,19.03
2023-07-12T15:45:33.016Z,19.04
2023-07-12T15:46:33.019Z,19.06
2023-07-12T15:47:33.059Z,19.09
2023-07-12T15:48:33.005Z,19.14
2023-07-12T15:49:33.044Z,19.20
2023-07-12T15:50:32.954Z,19.27
2023-07-12T15:51:32.934Z,19.36
2023-07-12T15:52:32.936Z,19.48
2023-07-12T15:53:32.922Z,19.61
2023-07-12T15:54:32.904Z,19.75
2023-07-12T15:55:32.951Z,19.90
2023-07-12T15:56:34.831Z,20.05
2023-07-12T15:57:32.861Z,20.20
2023-07-12T15:58:32.883Z,20.33
2023-07-12T15:59:32.839Z,20.42
2023-07-12T16:00:32.878Z,20.45
2023-07-12T16:01:32.945Z,20.46
2023-07-12T16:02:32.812Z,20.44
2023-07-12T16:03:32.781Z,20.39
2023-07-12T16:04:32.858Z,20.31
2023-07-12T16:05:32.758Z,20.25
2023-07-12T16:06:32.781Z,20.20
2023-07-12T16:07:32.777Z,20.19
2023-07-12T16:08:32.738Z,20.20
2023-07-12T16:09:32.718Z,20.20
2023-07-12T16:10:32.691Z,20.18
2023-07-12T16:11:32.683Z,20.14
2023-07-12T16:12:32.662Z,20.09
2023-07-12T16:13:32.717Z,20.05
2023-07-12T16:14:32.653Z,20.04
2023-07-12T16:15:32.645Z,20.04
2023-07-12T16:16:32.755Z,20.05
2023-07-12T16:17:32.630Z,20.07
2023-07-12T16:18:32.644Z,20.08
2023-07-12T16:19:32.627Z,20.09
2023-07-12T16:20:32.563Z,20.09
2023-07-12T16:21:32.568Z,20.10
2023-07-12T16:22:32.564Z,20.07
2023-07-12T16:23:32.542Z,20.01
2023-07-12T16:24:32.516Z,19.95
2023-07-12T16:25:32.561Z,19.90
2023-07-12T16:26:32.499Z,19.87
2023-07-12T16:27:32.479Z,19.86
2023-07-12T16:28:32.464Z,19.85
2023-07-12T16:29:32.466Z,19.83
2023-07-12T16:30:32.454Z,19.80
2023-07-12T16:31:32.490Z,19.79
2023-07-12T16:32:32.493Z,19.82
2023-07-12T16:33:32.403Z,19.86
2023-07-12T16:34:32.405Z,19.90
2023-07-12T16:35:32.375Z,19.94
2023-07-12T16:36:32.374Z,19.98
2023-07-12T16:37:32.428Z,20.02
2023-07-12T16:38:32.346Z,20.05
2023-07-12T16:39:32.319Z,20.07
2023-07-12T16:40:32.314Z,20.06
2023-07-12T16:41:32.353Z,20.01
2023-07-12T16:42:32.301Z,19.94
2023-07-12T16:43:32.387Z,19.85
2023-07-12T16:44:32.291Z,19.78
2023-07-12T16:45:32.273Z,19.72
2023-07-12T16:46:32.308Z,19.66
2023-07-12T16:47:33.348Z,19.59
2023-07-12T16:48:32.214Z,19.53
2023-07-12T16:49:32.253Z,19.48
2023-07-12T16:50:32.194Z,19.44
2023-07-12T16:51:32.171Z,19.42
2023-07-12T16:52:32.180Z,19.39
2023-07-12T16:53:32.179Z,19.36
2023-07-12T16:54:32.176Z,19.35
2023-07-12T16:55:32.168Z,19.34
2023-07-12T16:56:32.118Z,19.32
2023-07-12T16:57:32.136Z,19.32
2023-07-12T16:58:32.110Z,19.32
2023-07-12T16:59:32.087Z,19.31
2023-07-12T17:00:32.067Z,19.29
2023-07-12T17:01:32.168Z,19.26
2023-07-12T17:02:32.102Z,19.24
2023-07-12T17:03:32.011Z,19.21
2023-07-12T17:04:32.027Z,19.19
2023-07-12T17:05:32.098Z,19.16
2023-07-12T17:06:31.999Z,19.12
2023-07-12T17:07:32.014Z,19.08
2023-07-12T17:08:31.963Z,19.04
2023-07-12T17:09:31.984Z,19.01
2023-07-12T17:10:31.933Z,18.99
2023-07-12T17:11:31.937Z,18.96
2023-07-12T17:19:33.146Z,19.89
2023-07-12T17:20:45.981Z,19.46
2023-07-12T17:21:34.068Z,19.19
2023-07-12T17:22:34.096Z,19.05
2023-07-12T17:23:34.040Z,18.97
2023-07-12T17:24:34.440Z,18.91
2023-07-12T17:25:34.018Z,18.85
2023-07-12T17:26:34.000Z,18.80
2023-07-12T17:27:33.980Z,18.74
2023-07-12T17:28:33.993Z,18.70
2023-07-12T17:29:33.962Z,18.66
2023-07-12T17:30:33.989Z,18.62
2023-07-12T17:31:33.978Z,18.58
2023-07-12T17:32:33.927Z,18.55
2023-07-12T17:33:33.898Z,18.52
2023-07-12T17:34:33.891Z,18.50
2023-07-12T17:35:33.873Z,18.47
2023-07-12T17:36:33.894Z,18.44
2023-07-12T17:37:33.866Z,18.41
2023-07-12T17:38:33.879Z,18.39
2023-07-12T17:39:34.211Z,18.38
2023-07-12T17:40:33.816Z,18.36
2023-07-12T17:41:33.808Z,18.35
2023-07-12T17:42:33.816Z,18.34
2023-07-12T17:43:33.774Z,18.33
2023-07-12T17:44:33.771Z,18.32
2023-07-12T17:45:33.752Z,18.31
2023-07-12T17:46:33.759Z,18.31
2023-07-12T17:47:33.732Z,18.31
2023-07-12T17:48:33.744Z,18.31
2023-07-12T17:49:33.705Z,18.31
2023-07-12T17:50:33.689Z,18.31
2023-07-12T17:51:33.671Z,18.28
2023-07-12T17:52:33.672Z,18.24
2023-07-12T17:53:38.557Z,18.18
2023-07-12T17:54:33.675Z,18.11
2023-07-12T17:55:33.632Z,18.02
2023-07-12T17:56:33.612Z,17.95
2023-07-12T17:57:33.609Z,17.90
2023-07-12T17:58:33.590Z,17.85
2023-07-12T17:59:33.575Z,17.79
2023-07-12T18:00:33.613Z,17.72
2023-07-12T18:01:33.588Z,17.66
2023-07-12T18:02:33.570Z,17.60
2023-07-12T18:03:33.683Z,17.55
2023-07-12T18:04:33.498Z,17.52
2023-07-12T18:05:33.519Z,17.50
2023-07-12T18:06:33.514Z,17.48
2023-07-12T18:07:33.544Z,17.44
2023-07-12T18:08:33.460Z,17.40
2023-07-12T18:09:33.799Z,17.36
2023-07-12T18:10:33.432Z,17.32
2023-07-12T19:16:00.278Z,18.00
2023-07-12T19:17:08.672Z,17.57
2023-07-12T19:17:58.389Z,17.28
2023-07-12T19:18:58.362Z,17.10
2023-07-12T19:19:58.336Z,16.99
2023-07-12T19:20:58.393Z,16.93
2023-07-12T19:21:58.372Z,16.89
2023-07-12T19:22:58.353Z,16.87
2023-07-12T19:23:58.290Z,16.86
2023-07-12T19:24:58.286Z,16.86
2023-07-12T19:25:58.270Z,16.87
2023-07-12T19:27:04.514Z,16.88
2023-07-12T19:27:59.002Z,16.88
2023-07-12T19:28:58.227Z,16.88
2023-07-12T19:29:58.228Z,16.88
2023-07-12T19:30:58.213Z,16.89
2023-07-12T19:31:58.182Z,16.89